Time;durP1;ratioP1;P1;durP2;ratioP2;P2;SDS_P1;SDS_P2;PMS_P1;PMS_P2;Temp;Humidity;BMP_temperature;BMP_pressure;BME280_temperature;BME280_humidity;BME280_pressure;Samples;Min_cycle;Max_cycle;Signal;HPM_P1;HPM_P2
2022/11/25 00:01:07;;;;;;;20.92;16.33;;;;;;;3.56;100.00;95829.09;5079329;28;20494;-66
2022/11/25 00:03:34;;;;;;;21.75;17.33;;;;;;;3.58;100.00;95832.44;5079089;28;20028;-60
2022/11/25 00:06:20;;;;;;;26.98;19.77;;;;;;;3.61;100.00;95828.81;5087962;28;20124;-59
2022/11/25 00:08:52;;;;;;;26.13;20.65;;;;;;;3.70;100.00;95829.09;5081946;28;20035;-66
2022/11/25 00:11:18;;;;;;;34.75;26.80;;;;;;;3.65;100.00;95828.53;5089297;28;20039;-65
2022/11/25 00:13:45;;;;;;;28.88;25.83;;;;;;;3.62;100.00;95822.69;5087595;28;20021;-65
2022/11/25 00:16:16;;;;;;;25.42;22.73;;;;;;;3.80;100.00;95813.72;5085219;28;20367;-65
2022/11/25 00:18:46;;;;;;;25.08;22.05;;;;;;;3.70;100.00;95816.06;5083886;28;20023;-66
2022/11/25 00:21:14;;;;;;;27.67;24.80;;;;;;;3.67;100.00;95818.00;5082554;28;20027;-66
2022/11/25 00:23:40;;;;;;;30.45;25.90;;;;;;;3.69;100.00;95818.75;5088006;28;20019;-73
2022/11/25 00:26:15;;;;;;;26.48;23.80;;;;;;;3.77;100.00;95816.53;5083926;28;20398;-64
2022/11/25 00:28:43;;;;;;;26.48;23.75;;;;;;;3.68;100.00;95809.28;5087061;28;20024;-73
2022/11/25 00:31:11;;;;;;;28.70;25.73;;;;;;;3.65;100.00;95809.47;5092280;28;20142;-73
2022/11/25 00:33:38;;;;;;;27.10;24.25;;;;;;;3.60;100.00;95817.56;5094532;28;20044;-73
2022/11/25 00:36:06;;;;;;;25.92;21.75;;;;;;;3.57;100.00;95810.78;5081805;28;20504;-74
2022/11/25 00:38:31;;;;;;;26.80;22.67;;;;;;;3.58;100.00;95814.22;5079285;28;20028;-73
2022/11/25 00:46:25;;;;;;;34.42;24.60;;;;;;;3.60;100.00;95833.19;5074673;28;20078;-70
2022/11/25 00:48:51;;;;;;;20.95;18.60;;;;;;;3.81;100.00;95827.56;5076743;28;20498;-71
2022/11/25 00:51:17;;;;;;;30.63;26.85;;;;;;;3.90;100.00;95826.16;5084009;28;20093;-71
2022/11/25 00:53:42;;;;;;;28.20;22.02;;;;;;;3.96;100.00;95826.59;5091879;28;20016;-70
2022/11/25 00:56:14;;;;;;;28.27;21.38;;;;;;;3.91;100.00;95818.25;5089142;28;20017;-70
2022/11/25 00:58:43;;;;;;;31.77;22.92;;;;;;;3.97;100.00;95799.63;5087907;28;20016;-71
2022/11/25 01:01:10;;;;;;;31.25;19.25;;;;;;;3.94;100.00;95793.75;5087765;28;20024;-71
2022/11/25 01:03:36;;;;;;;24.83;18.05;;;;;;;3.84;100.00;95783.94;5086700;28;20035;-60
2022/11/25 01:06:08;;;;;;;30.55;20.73;;;;;;;3.71;100.00;95796.91;5086741;28;20032;-64
2022/11/25 01:08:34;;;;;;;29.77;19.10;;;;;;;3.70;100.00;95805.66;5082985;28;20390;-64
2022/11/25 01:11:05;;;;;;;25.45;18.35;;;;;;;3.67;100.00;95802.41;5078158;28;20032;-65
2022/11/25 01:13:31;;;;;;;25.50;17.73;;;;;;;3.65;100.00;95809.47;5074964;28;20028;-64
2022/11/25 01:15:56;;;;;;;23.50;15.93;;;;;;;3.61;100.00;95824.44;5080484;28;20096;-65
2022/11/25 01:18:21;;;;;;;25.80;15.60;;;;;;;3.80;100.00;95831.94;5059787;28;20107;-65
2022/11/25 01:20:47;;;;;;;25.63;16.23;;;;;;;3.75;100.00;95812.34;5088364;28;20016;-73
2022/11/25 01:23:12;;;;;;;22.30;16.17;;;;;;;3.73;100.00;95820.22;5089083;28;20081;-73
2022/11/25 01:25:38;;;;;;;18.55;14.13;;;;;;;3.73;100.00;95809.81;5085752;28;20023;-63
2022/11/25 01:28:03;;;;;;;21.02;16.08;;;;;;;3.76;100.00;95798.38;5088048;28;20035;-63
2022/11/25 01:30:29;;;;;;;21.20;16.13;;;;;;;3.74;100.00;95801.06;5090109;28;20039;-63
2022/11/25 01:32:54;;;;;;;22.55;16.63;;;;;;;3.76;100.00;95803.59;5084494;28;20097;-64
2022/11/25 01:35:20;;;;;;;23.77;16.00;;;;;;;3.71;100.00;95804.72;5083259;28;20031;-63
2022/11/25 01:37:45;;;;;;;21.88;16.23;;;;;;;3.71;100.00;95793.44;5077073;28;20020;-63
2022/11/25 01:40:11;;;;;;;21.17;17.98;;;;;;;3.77;100.00;95800.03;5084058;28;20043;-66
2022/11/25 01:42:42;;;;;;;25.02;16.50;;;;;;;3.71;100.00;95804.72;5073961;28;20086;-63
2022/11/25 01:45:23;;;;;;;20.90;15.48;;;;;;;3.69;100.00;95803.97;5067668;28;20043;-60
2022/11/25 01:47:56;;;;;;;22.85;17.95;;;;;;;3.66;100.00;95800.72;5080259;28;20038;-60
2022/11/25 01:50:25;;;;;;;28.35;21.75;;;;;;;3.61;100.00;95805.41;5075443;28;20158;-59
2022/11/25 01:52:54;;;;;;;31.13;21.73;;;;;;;3.56;100.00;95809.13;5078658;28;20031;-60
2022/11/25 01:55:29;;;;;;;30.70;25.15;;;;;;;3.71;100.00;95812.53;5083252;28;20024;-60
2022/11/25 01:57:58;;;;;;;;;;;;;;;3.78;100.00;95819.94;5083726;28;20020;-59
2022/11/25 02:00:24;;;;;;;24.50;21.38;;;;;;;3.68;100.00;95823.13;5081393;28;19908;-59
2022/11/25 02:02:52;;;;;;;30.92;22.63;;;;;;;3.61;100.00;95821.00;5085104;28;20024;-71
2022/11/25 02:05:22;;;;;;;26.70;23.83;;;;;;;3.65;100.00;95825.94;5082469;28;20043;-70
2022/11/25 02:07:50;;;;;;;28.48;23.00;;;;;;;3.62;100.00;95828.72;5085485;28;20482;-70
2022/11/25 02:10:20;;;;;;;23.83;21.27;;;;;;;3.60;100.00;95821.94;5082373;28;20051;-70
2022/11/25 02:12:47;;;;;;;26.33;22.23;;;;;;;3.42;100.00;95824.75;5079331;28;20118;-70
2022/11/25 02:15:14;;;;;;;28.10;21.80;;;;;;;3.42;100.00;95835.97;5083902;28;20028;-70
2022/11/25 02:17:41;;;;;;;25.08;21.17;;;;;;;3.36;100.00;95831.16;5081841;28;20111;-70
2022/11/25 02:20:12;;;;;;;26.75;19.48;;;;;;;3.23;100.00;95833.69;5085243;28;20043;-65
2022/11/25 02:22:59;;;;;;;24.90;19.90;;;;;;;3.13;100.00;95840.38;5082393;28;20032;-73
2022/11/25 02:25:28;;;;;;;22.10;19.83;;;;;;;3.01;100.00;95834.97;5080780;28;20023;-72
2022/11/25 02:27:59;;;;;;;24.38;19.83;;;;;;;3.00;100.00;95832.47;5080259;28;20032;-73
2022/11/25 02:30:24;;;;;;;27.15;19.98;;;;;;;2.94;100.00;95833.69;5080410;28;20028;-73
2022/11/25 02:32:49;;;;;;;25.60;19.25;;;;;;;2.90;100.00;95831.34;5075696;28;20048;-73
2022/11/25 02:35:37;;;;;;;20.70;17.30;;;;;;;2.87;100.00;95834.94;5081627;28;20028;-74
2022/11/25 02:38:14;;;;;;;19.50;15.65;;;;;;;2.88;100.00;95831.44;5075420;28;20396;-59
2022/11/25 02:40:55;;;;;;;17.83;15.73;;;;;;;2.93;100.00;95825.94;5080779;28;20016;-64
2022/11/25 02:43:21;;;;;;;18.02;16.13;;;;;;;3.04;100.00;95836.56;5082826;28;20603;-73
2022/11/25 02:45:49;;;;;;;20.23;17.17;;;;;;;2.95;100.00;95839.69;5085428;28;20020;-74
2022/11/25 02:48:14;;;;;;;22.27;17.00;;;;;;;2.92;100.00;95832.09;5083637;28;20095;-73
2022/11/25 02:50:40;;;;;;;17.75;15.38;;;;;;;3.07;100.00;95832.94;5076894;28;20035;-73
2022/11/25 02:53:06;;;;;;;17.38;14.43;;;;;;;3.06;100.00;95834.72;5079720;28;20029;-73
2022/11/25 02:55:31;;;;;;;21.70;15.00;;;;;;;3.06;100.00;95839.91;5083513;28;20057;-73
2022/11/25 02:57:57;;;;;;;16.75;13.70;;;;;;;3.05;100.00;95843.44;5071720;28;20061;-70
2022/11/25 03:00:22;;;;;;;18.17;14.27;;;;;;;3.00;100.00;95843.72;5080919;28;20031;-63
2022/11/25 03:02:52;;;;;;;15.10;13.45;;;;;;;2.94;100.00;95843.22;5077962;28;20504;-60
2022/11/25 03:05:17;;;;;;;16.40;14.20;;;;;;;2.92;100.00;95842.50;5078931;28;20035;-60
2022/11/25 03:07:42;;;;;;;22.48;13.65;;;;;;;2.89;100.00;95840.06;5084562;28;20017;-60
2022/11/25 03:10:08;;;;;;;15.88;12.18;;;;;;;2.90;100.00;95844.34;5084466;28;20555;-59
2022/11/25 03:12:33;;;;;;;11.18;9.77;;;;;;;2.86;100.00;95846.28;5078468;28;20031;-59
2022/11/25 03:14:59;;;;;;;14.48;10.13;;;;;;;2.86;100.00;95847.13;5066890;28;20034;-59
2022/11/25 03:17:24;;;;;;;10.85;9.25;;;;;;;2.86;100.00;95849.72;5060877;28;20035;-63
2022/11/25 03:19:49;;;;;;;11.40;8.90;;;;;;;2.86;100.00;95846.28;5084676;28;20044;-71
2022/11/25 03:22:15;;;;;;;9.95;7.53;;;;;;;2.85;100.00;95845.47;5085972;28;20027;-70
2022/11/25 03:24:40;;;;;;;13.65;8.45;;;;;;;2.84;100.00;95853.34;5083304;28;20038;-70
2022/11/25 03:27:05;;;;;;;12.30;7.93;;;;;;;2.92;100.00;95851.16;5093898;28;20047;-70
2022/11/25 03:29:31;;;;;;;9.43;8.40;;;;;;;2.95;100.00;95850.09;5085539;28;20115;-70
2022/11/25 03:31:56;;;;;;;11.23;9.15;;;;;;;2.96;100.00;95850.03;5077885;28;20056;-70
2022/11/25 03:34:21;;;;;;;8.93;8.07;;;;;;;3.07;100.00;95846.78;5079242;28;20030;-70
2022/11/25 03:36:47;;;;;;;12.60;9.98;;;;;;;3.09;100.00;95846.69;5077542;28;20027;-66
2022/11/25 03:39:12;;;;;;;19.58;12.95;;;;;;;3.11;100.00;95843.06;5087346;28;20051;-63
2022/11/25 03:41:37;;;;;;;16.95;13.68;;;;;;;3.10;100.00;95838.78;5077441;28;20024;-63
2022/11/25 03:44:03;;;;;;;17.77;14.82;;;;;;;3.09;100.00;95849.28;5086655;28;20115;-63
2022/11/25 03:46:28;;;;;;;20.98;16.92;;;;;;;3.09;100.00;95841.47;5079252;28;20052;-62
2022/11/25 03:48:54;;;;;;;18.58;16.58;;;;;;;3.05;100.00;95829.59;5076074;28;20456;-63
2022/11/25 03:51:19;;;;;;;22.27;17.02;;;;;;;3.02;100.00;95833.22;5085231;28;20107;-64
2022/11/25 03:53:44;;;;;;;21.52;19.23;;;;;;;2.96;100.00;95834.41;5087352;28;20024;-64
2022/11/25 03:56:10;;;;;;;24.48;19.60;;;;;;;2.93;100.00;95825.94;5088484;28;20020;-60
2022/11/25 03:58:35;;;;;;;24.98;22.20;;;;;;;2.92;100.00;95829.50;5089534;28;20031;-63
2022/11/25 04:01:02;;;;;;;29.40;23.42;;;;;;;2.91;100.00;95825.22;5087831;28;20022;-63
2022/11/25 04:03:28;;;;;;;29.02;23.92;;;;;;;2.89;100.00;95829.66;5085502;28;20454;-61
2022/11/25 04:05:53;;;;;;;25.10;22.30;;;;;;;2.86;100.00;95834.13;5088993;28;20524;-63
2022/11/25 04:08:19;;;;;;;23.20;20.80;;;;;;;2.84;100.00;95836.00;5103227;28;20043;-63
2022/11/25 04:10:45;;;;;;;21.98;19.75;;;;;;;2.79;100.00;95842.38;5086871;28;20024;-63
2022/11/25 04:13:10;;;;;;;24.02;20.35;;;;;;;2.74;100.00;95840.03;5089229;28;20077;-63
2022/11/25 04:15:35;;;;;;;26.15;20.08;;;;;;;2.66;100.00;95832.72;5091551;28;20103;-73
2022/11/25 04:18:01;;;;;;;37.17;22.98;;;;;;;2.58;100.00;95832.31;5092823;28;20056;-71
2022/11/25 04:20:26;;;;;;;24.35;21.10;;;;;;;2.50;100.00;95845.75;5090613;28;20443;-70
2022/11/25 04:22:52;;;;;;;26.40;21.58;;;;;;;2.48;100.00;95857.16;5089757;28;20034;-70
2022/11/25 04:25:17;;;;;;;36.97;26.42;;;;;;;2.45;100.00;95865.16;5090756;28;20028;-70
2022/11/25 04:27:43;;;;;;;43.38;31.05;;;;;;;2.41;100.00;95869.69;5085805;28;20028;-70
2022/11/25 04:30:09;;;;;;;29.60;25.02;;;;;;;2.28;100.00;95875.56;5091673;28;20028;-70
2022/11/25 04:32:36;;;;;;;34.65;24.40;;;;;;;2.20;100.00;95882.94;5085427;28;20047;-70
2022/11/25 04:35:01;;;;;;;25.70;19.92;;;;;;;2.19;100.00;95885.63;5079939;28;20103;-71
2022/11/25 04:37:27;;;;;;;24.42;19.25;;;;;;;2.14;100.00;95876.34;5084285;28;20107;-65
2022/11/25 04:39:52;;;;;;;20.00;15.43;;;;;;;2.09;100.00;95880.09;5079440;28;20032;-64
2022/11/25 04:42:38;;;;;;;18.98;14.45;;;;;;;2.06;100.00;95878.53;5093284;28;20020;-65
2022/11/25 04:45:14;;;;;;;19.98;16.88;;;;;;;2.05;100.00;95889.00;5087034;28;20038;-64
2022/11/25 04:47:39;;;;;;;18.95;13.88;;;;;;;1.99;100.00;95888.41;5081039;28;20070;-64
2022/11/25 04:50:07;;;;;;;22.48;17.10;;;;;;;1.93;100.00;95893.09;5091537;28;20032;-65
2022/11/25 04:52:33;;;;;;;18.00;15.18;;;;;;;1.88;100.00;95890.78;5073697;28;20123;-59
2022/11/25 04:54:58;;;;;;;19.95;14.43;;;;;;;1.83;100.00;95891.00;5090764;28;20110;-72
2022/11/25 04:57:24;;;;;;;20.90;16.23;;;;;;;1.82;100.00;95891.09;5091167;28;20035;-64
2022/11/25 04:59:49;;;;;;;17.83;15.65;;;;;;;1.79;100.00;95888.66;5089672;28;20065;-65
2022/11/25 05:02:21;;;;;;;23.13;18.73;;;;;;;1.75;100.00;95884.56;5091820;28;20107;-65
2022/11/25 05:04:48;;;;;;;27.17;18.25;;;;;;;1.71;100.00;95879.53;5084812;28;20030;-64
2022/11/25 05:07:14;;;;;;;21.27;15.82;;;;;;;1.65;100.00;95885.03;5101271;28;20046;-64
2022/11/25 05:09:40;;;;;;;22.17;14.77;;;;;;;1.60;100.00;95879.25;5083396;28;20024;-64
2022/11/25 05:12:07;;;;;;;19.58;14.50;;;;;;;1.55;100.00;95879.53;5078254;28;20035;-61
2022/11/25 05:14:34;;;;;;;21.08;15.77;;;;;;;1.53;100.00;95878.75;5073080;28;20028;-61
2022/11/25 05:17:00;;;;;;;19.48;15.55;;;;;;;1.50;100.00;95876.31;5075613;28;20478;-65
2022/11/25 05:19:25;;;;;;;23.58;16.13;;;;;;;1.48;100.00;95883.34;5083269;28;20035;-65
2022/11/25 05:21:51;;;;;;;22.63;16.88;;;;;;;1.43;100.00;95888.78;5072300;28;20394;-65
2022/11/25 05:24:16;;;;;;;25.73;20.33;;;;;;;1.38;100.00;95879.59;5087523;28;20150;-65
2022/11/25 05:26:41;;;;;;;28.25;20.35;;;;;;;1.34;100.00;95875.47;5086973;28;20110;-65
2022/11/25 05:29:08;;;;;;;24.38;18.48;;;;;;;1.30;100.00;95874.78;5083364;28;20511;-65
2022/11/25 05:31:33;;;;;;;28.65;18.08;;;;;;;1.25;100.00;95879.38;5080005;28;20028;-59
2022/11/25 05:34:01;;;;;;;21.90;16.60;;;;;;;1.22;100.00;95882.97;5089000;28;20044;-64
2022/11/25 05:36:26;;;;;;;20.95;16.75;;;;;;;1.20;100.00;95882.22;5073259;28;20098;-61
2022/11/25 05:38:51;;;;;;;21.05;14.13;;;;;;;1.16;100.00;95885.03;5072568;28;20545;-62
2022/11/25 05:41:17;;;;;;;23.23;15.48;;;;;;;1.14;100.00;95885.13;5071053;28;20016;-62
2022/11/25 05:43:42;;;;;;;21.40;16.25;;;;;;;1.10;100.00;95888.78;5070806;28;20103;-62
2022/11/25 05:46:08;;;;;;;27.63;18.27;;;;;;;1.04;100.00;95889.94;5081936;28;20459;-62
2022/11/25 05:48:34;;;;;;;18.58;13.43;;;;;;;0.99;100.00;95891.91;5088370;28;20032;-63
2022/11/25 05:51:01;;;;;;;18.38;11.00;;;;;;;1.03;100.00;95883.09;5076638;28;20043;-59
2022/11/25 05:53:26;;;;;;;15.68;12.23;;;;;;;0.97;100.00;95885.97;5071829;28;20490;-71
2022/11/25 05:55:57;;;;;;;13.18;11.48;;;;;;;0.90;100.00;95888.06;5071363;28;20111;-60
2022/11/25 05:58:23;;;;;;;16.23;11.30;;;;;;;0.85;100.00;95885.69;5071769;28;20024;-60
2022/11/25 06:00:48;;;;;;;15.70;10.93;;;;;;;0.85;100.00;95884.84;5073114;28;20522;-61
2022/11/25 06:03:14;;;;;;;11.15;9.95;;;;;;;0.84;100.00;95885.75;5071983;28;20573;-62
2022/11/25 06:05:40;;;;;;;14.65;10.00;;;;;;;0.87;100.00;95884.78;5073261;28;20032;-61
2022/11/25 06:08:06;;;;;;;16.88;10.57;;;;;;;0.82;100.00;95885.00;5090520;28;20024;-61
2022/11/25 06:10:32;;;;;;;13.25;11.20;;;;;;;0.78;100.00;95880.91;5078199;28;20032;-64
2022/11/25 06:12:57;;;;;;;14.05;10.27;;;;;;;0.76;100.00;95880.13;5072663;28;20031;-59
2022/11/25 06:15:23;;;;;;;12.55;10.70;;;;;;;0.74;100.00;95882.78;5073892;28;20028;-64
2022/11/25 06:17:48;;;;;;;13.68;10.02;;;;;;;0.69;100.00;95874.41;5084715;28;20020;-64
2022/11/25 06:20:14;;;;;;;15.35;11.13;;;;;;;0.62;100.00;95876.47;5075614;28;20116;-64
2022/11/25 06:22:39;;;;;;;15.90;10.77;;;;;;;0.62;100.00;95873.06;5080901;28;20047;-63
2022/11/25 06:25:04;;;;;;;15.05;11.65;;;;;;;0.63;100.00;95874.72;5069759;28;20040;-64
2022/11/25 06:27:30;;;;;;;17.55;12.23;;;;;;;0.61;100.00;95879.16;5070410;28;20238;-64
2022/11/25 06:29:55;;;;;;;18.65;12.18;;;;;;;0.54;100.00;95887.22;5063270;28;20522;-70
2022/11/25 06:32:21;;;;;;;19.60;12.00;;;;;;;0.53;100.00;95900.25;5089741;28;20498;-64
2022/11/25 06:34:46;;;;;;;15.32;11.45;;;;;;;0.50;100.00;95890.03;5088869;28;20501;-62
2022/11/25 06:37:11;;;;;;;15.70;13.90;;;;;;;0.49;100.00;95896.97;5084913;28;20039;-62
2022/11/25 06:39:37;;;;;;;19.25;12.93;;;;;;;0.48;100.00;95902.25;5079076;28;20044;-62
2022/11/25 06:42:02;;;;;;;16.60;12.30;;;;;;;0.43;100.00;95905.88;5072823;28;20024;-62
2022/11/25 06:44:28;;;;;;;17.10;13.98;;;;;;;0.41;100.00;95912.88;5071318;28;20025;-62
2022/11/25 06:46:53;;;;;;;19.73;15.15;;;;;;;0.39;100.00;95919.88;5085175;28;20929;-61
2022/11/25 06:49:18;;;;;;;25.52;17.90;;;;;;;0.40;100.00;95928.50;5076620;28;20020;-76
2022/11/25 06:51:44;;;;;;;23.15;18.23;;;;;;;0.39;100.00;95932.00;5084307;28;20031;-65
2022/11/25 06:54:09;;;;;;;23.67;18.50;;;;;;;0.39;100.00;95929.44;5089495;28;20023;-66
2022/11/25 06:56:35;;;;;;;27.05;19.38;;;;;;;0.40;100.00;95925.91;5078236;28;20036;-65
2022/11/25 06:59:01;;;;;;;21.13;17.73;;;;;;;0.39;100.00;95932.00;5079990;28;20024;-65
2022/11/25 07:01:28;;;;;;;25.90;18.40;;;;;;;0.39;100.00;95930.25;5078557;28;20024;-66
2022/11/25 07:03:58;;;;;;;30.42;24.65;;;;;;;0.42;100.00;95935.28;5075326;28;20105;-65
2022/11/25 07:06:23;;;;;;;28.58;22.70;;;;;;;0.41;100.00;95936.19;5079161;28;20023;-66
2022/11/25 07:08:49;;;;;;;35.42;23.77;;;;;;;0.41;100.00;95932.78;5080496;28;20043;-70
2022/11/25 07:11:32;;;;;;;36.05;28.42;;;;;;;0.42;100.00;95931.88;5075576;28;20453;-70
2022/11/25 07:13:59;;;;;;;123.90;72.40;;;;;;;0.40;100.00;95936.28;5074534;28;20055;-73
2022/11/25 07:16:26;;;;;;;121.13;68.70;;;;;;;0.39;100.00;95944.97;5079521;28;20023;-71
2022/11/25 07:18:51;;;;;;;87.90;53.28;;;;;;;0.41;100.00;95951.72;5084247;28;20055;-73
2022/11/25 07:21:19;;;;;;;103.32;61.03;;;;;;;0.42;100.00;95950.81;5081661;28;20025;-72
2022/11/25 07:23:45;;;;;;;92.07;55.38;;;;;;;0.43;100.00;95954.25;5080483;28;20024;-72
2022/11/25 07:26:17;;;;;;;72.18;48.55;;;;;;;0.46;100.00;95953.28;5082985;28;20028;-72
2022/11/25 07:28:44;;;;;;;55.75;37.63;;;;;;;0.48;100.00;95951.47;5065168;28;20044;-61
2022/11/25 07:31:16;;;;;;;37.95;27.17;;;;;;;0.51;100.00;95954.72;5091918;28;20028;-72
2022/11/25 07:33:42;;;;;;;36.97;26.58;;;;;;;0.56;100.00;95950.19;5078191;28;20049;-72
2022/11/25 07:36:10;;;;;;;35.80;26.38;;;;;;;0.59;100.00;95945.75;5069576;28;20023;-74
2022/11/25 07:38:36;;;;;;;44.30;31.98;;;;;;;0.59;100.00;95940.59;5083900;28;20416;-73
2022/11/25 07:41:05;;;;;;;45.78;34.17;;;;;;;0.57;100.00;95935.47;5090577;28;20501;-73
2022/11/25 07:43:31;;;;;;;67.13;49.53;;;;;;;0.59;100.00;95946.59;5082033;28;20035;-72
2022/11/25 07:46:06;;;;;;;47.25;36.83;;;;;;;0.67;100.00;95948.81;5085780;28;20020;-72
2022/11/25 07:48:31;;;;;;;59.38;41.20;;;;;;;0.66;100.00;95960.09;5081385;28;20067;-60
2022/11/25 07:50:56;;;;;;;56.60;39.38;;;;;;;0.63;100.00;95953.28;5083369;28;20067;-62
2022/11/25 07:53:22;;;;;;;45.67;33.22;;;;;;;0.64;100.00;95954.97;5084297;28;20024;-62
2022/11/25 07:55:47;;;;;;;40.67;30.05;;;;;;;0.67;100.00;95954.00;5085066;28;20039;-61
2022/11/25 07:58:12;;;;;;;33.53;27.25;;;;;;;0.71;100.00;95947.75;5078897;28;20043;-62
2022/11/25 08:00:38;;;;;;;34.35;24.85;;;;;;;0.80;100.00;95949.91;5080628;28;20028;-62
2022/11/25 08:03:03;;;;;;;28.92;24.02;;;;;;;0.90;100.00;95955.47;5081979;28;20016;-61
2022/11/25 08:05:28;;;;;;;29.55;23.65;;;;;;;0.99;100.00;95956.75;5082915;28;20505;-62
2022/11/25 08:07:54;;;;;;;26.77;23.92;;;;;;;1.12;100.00;95952.63;5083139;28;20423;-62
2022/11/25 08:10:20;;;;;;;26.50;22.52;;;;;;;1.27;100.00;95957.97;5081913;28;20405;-66
2022/11/25 08:12:45;;;;;;;28.08;23.98;;;;;;;1.40;100.00;95959.00;5082770;28;20524;-66
2022/11/25 08:15:11;;;;;;;33.03;27.00;;;;;;;1.55;100.00;95957.38;5072400;28;20613;-65
2022/11/25 08:17:36;;;;;;;33.60;26.98;;;;;;;1.67;100.00;95953.31;5082579;28;20024;-65
2022/11/25 08:20:02;;;;;;;36.22;26.70;;;;;;;1.79;100.00;95964.81;5075830;28;20525;-65
2022/11/25 08:22:27;;;;;;;38.10;33.08;;;;;;;1.94;100.00;95970.94;5082120;28;20132;-65
2022/11/25 08:24:53;;;;;;;52.33;43.67;;;;;;;2.07;100.00;95973.72;5070822;28;20036;-73
2022/11/25 08:27:18;;;;;;;32.70;26.13;;;;;;;2.17;100.00;95978.38;5084088;28;20034;-69
2022/11/25 08:29:43;;;;;;;56.17;43.92;;;;;;;2.26;100.00;95981.31;5075338;28;20658;-61
2022/11/25 08:32:09;;;;;;;48.90;38.35;;;;;;;2.36;100.00;95984.25;5080266;28;20626;-61
2022/11/25 08:34:34;;;;;;;37.83;32.40;;;;;;;2.56;100.00;96001.38;5085500;28;20028;-61
2022/11/25 08:36:59;;;;;;;27.58;24.58;;;;;;;2.69;100.00;95998.94;5084384;28;20027;-61
2022/11/25 08:39:25;;;;;;;33.55;25.63;;;;;;;2.78;100.00;96000.19;5078357;28;20107;-61
2022/11/25 08:41:50;;;;;;;27.63;22.45;;;;;;;2.88;100.00;96013.50;5081254;28;20035;-61
2022/11/25 08:44:16;;;;;;;22.92;16.70;;;;;;;3.06;100.00;96014.22;5067974;28;20511;-72
2022/11/25 08:46:41;;;;;;;17.42;13.73;;;;;;;3.18;100.00;96012.66;5070495;28;20046;-60
2022/11/25 08:49:08;;;;;;;18.67;16.15;;;;;;;3.17;100.00;96011.00;5078805;28;20578;-71
2022/11/25 08:51:35;;;;;;;17.92;16.13;;;;;;;3.25;100.00;96005.34;5085214;28;20020;-71
2022/11/25 08:54:01;;;;;;;17.92;15.85;;;;;;;3.37;100.00;96001.19;5085456;28;20531;-72
2022/11/25 08:56:27;;;;;;;22.05;15.30;;;;;;;3.51;100.00;96009.00;5085721;28;20658;-71
2022/11/25 08:58:53;;;;;;;26.05;20.42;;;;;;;3.68;100.00;96005.44;5071695;28;20058;-72
2022/11/25 09:01:20;;;;;;;23.73;17.83;;;;;;;3.85;100.00;95995.75;5076439;28;20410;-73
2022/11/25 09:03:48;;;;;;;20.95;17.95;;;;;;;3.96;100.00;96003.75;5079108;28;20056;-65
2022/11/25 09:06:13;;;;;;;16.30;14.60;;;;;;;4.00;100.00;96007.84;5069453;28;20414;-72
2022/11/25 09:08:40;;;;;;;12.85;11.48;;;;;;;4.01;100.00;96006.91;5067343;28;20031;-66
2022/11/25 09:11:07;;;;;;;14.98;10.52;;;;;;;4.07;100.00;96004.84;5080259;28;20110;-65
2022/11/25 09:13:33;;;;;;;10.73;9.52;;;;;;;4.20;100.00;96020.56;5075635;28;20035;-65
2022/11/25 09:16:00;;;;;;;10.60;9.55;;;;;;;4.36;100.00;96010.88;5080142;28;20453;-65
2022/11/25 09:18:25;;;;;;;10.35;8.68;;;;;;;4.55;100.00;96015.78;5074657;28;20452;-65
2022/11/25 09:20:52;;;;;;;8.70;6.85;;;;;;;4.72;100.00;96008.63;5080861;28;20073;-65
2022/11/25 09:23:18;;;;;;;11.68;6.70;;;;;;;4.87;100.00;96005.06;5079759;28;20027;-65
2022/11/25 09:25:54;;;;;;;16.27;12.38;;;;;;;4.99;100.00;96007.81;5067224;28;20545;-61
2022/11/25 09:28:21;;;;;;;15.95;14.40;;;;;;;5.15;100.00;96003.25;5075279;28;20398;-70
2022/11/25 09:30:46;;;;;;;22.98;20.52;;;;;;;5.33;100.00;96007.38;5081067;28;20031;-71
2022/11/25 09:33:12;;;;;;;19.42;17.73;;;;;;;5.52;100.00;95999.16;5073925;28;20639;-71
2022/11/25 09:35:37;;;;;;;24.50;22.08;;;;;;;5.61;100.00;95998.50;5052660;28;20047;-70
2022/11/25 09:38:03;;;;;;;24.13;21.92;;;;;;;5.74;100.00;96001.13;5074873;28;20033;-71
2022/11/25 09:40:46;;;;;;;27.48;24.98;;;;;;;5.92;100.00;96004.28;5069816;28;20020;-70
2022/11/25 09:46:50;;;;;;;35.35;28.95;;;;;;;6.24;100.00;96003.03;5000573;28;20089;-70
2022/11/25 09:49:34;;;;;;;21.90;19.60;;;;;;;6.31;99.78;96009.47;5064091;28;20063;-70
2022/11/25 09:52:05;;;;;;;23.13;20.67;;;;;;;6.43;100.00;95995.56;5073178;28;20050;-71
2022/11/25 09:54:45;;;;;;;22.27;20.08;;;;;;;6.59;100.00;96002.28;5080535;28;20638;-70
2022/11/25 09:57:29;;;;;;;18.83;16.92;;;;;;;6.71;99.98;96011.88;5066731;28;20028;-70
2022/11/25 09:59:54;;;;;;;19.48;17.48;;;;;;;6.95;94.90;96010.22;5065870;28;20028;-71
2022/11/25 10:02:29;;;;;;;28.35;25.05;;;;;;;7.02;92.83;96016.69;5068360;28;20028;-61
2022/11/25 10:05:16;;;;;;;11.45;10.02;;;;;;;7.16;94.55;96013.06;5073646;28;20113;-59
2022/11/25 10:07:45;;;;;;;4.68;4.28;;;;;;;7.20;93.19;96013.69;5078707;28;20024;-59
2022/11/25 10:10:39;;;;;;;4.90;4.45;;;;;;;7.35;92.85;96006.47;5079390;28;20040;-59
2022/11/25 10:13:24;;;;;;;4.35;3.95;;;;;;;7.37;92.29;96002.75;5065053;28;20326;-59
2022/11/25 10:15:53;;;;;;;9.43;8.00;;;;;;;7.58;91.68;95999.50;5078016;28;20024;-59
2022/11/25 10:18:32;;;;;;;9.68;7.40;;;;;;;7.71;89.64;95992.38;5076102;28;20027;-59
2022/11/25 10:20:57;;;;;;;8.73;7.53;;;;;;;7.79;89.23;95978.69;5066189;28;20025;-71
2022/11/25 10:23:34;;;;;;;9.50;8.48;;;;;;;7.80;89.06;95979.50;5074515;28;20032;-59
2022/11/25 10:26:13;;;;;;;9.65;7.68;;;;;;;7.77;87.53;95964.88;5079952;28;20401;-72
2022/11/25 10:28:44;;;;;;;13.65;8.40;;;;;;;7.82;88.76;95961.88;5074349;28;20035;-73
2022/11/25 10:31:23;;;;;;;17.15;11.00;;;;;;;7.87;88.33;95954.50;5073301;28;20039;-72
2022/11/25 10:33:48;;;;;;;12.57;9.82;;;;;;;7.94;88.50;95952.22;5070532;28;20076;-72
2022/11/25 10:36:26;;;;;;;21.77;10.25;;;;;;;8.12;87.88;95948.16;5079844;28;20073;-72
2022/11/25 10:39:25;;;;;;;13.82;9.65;;;;;;;8.28;87.94;95945.16;5071890;28;20419;-72
2022/11/25 10:42:07;;;;;;;13.32;8.68;;;;;;;8.46;84.64;95949.91;5067454;28;20488;-68
2022/11/25 10:44:37;;;;;;;9.98;8.98;;;;;;;8.38;85.13;95944.44;5064228;28;20028;-59
2022/11/25 10:47:30;;;;;;;11.68;9.45;;;;;;;8.50;84.93;95948.75;5078397;28;20023;-59
2022/11/25 10:50:26;;;;;;;12.77;10.32;;;;;;;8.47;84.19;95948.97;5064384;28;20040;-59
2022/11/25 10:52:58;;;;;;;11.38;9.75;;;;;;;8.40;83.50;95947.78;5069211;28;20026;-59
2022/11/25 10:55:27;;;;;;;13.93;10.20;;;;;;;8.48;84.82;95957.69;5065106;28;20033;-59
2022/11/25 10:57:53;;;;;;;14.73;10.48;;;;;;;8.78;84.33;95954.41;5069835;28;20024;-59
2022/11/25 11:00:45;;;;;;;17.05;12.43;;;;;;;8.90;81.90;95963.09;5075856;28;20024;-59
2022/11/25 11:03:22;;;;;;;8.73;7.45;;;;;;;8.80;79.24;95963.00;5049801;28;20089;-72
2022/11/25 11:05:50;;;;;;;5.30;4.80;;;;;;;8.74;78.46;95963.50;5079495;28;20054;-72
2022/11/25 11:08:25;;;;;;;6.30;4.88;;;;;;;8.93;78.26;95972.47;5079655;28;20425;-72
2022/11/25 11:11:08;;;;;;;8.20;4.53;;;;;;;8.93;76.19;95964.59;5078497;28;20024;-72
2022/11/25 11:13:34;;;;;;;4.35;3.95;;;;;;;9.06;76.50;95961.81;5077221;28;20089;-72
2022/11/25 11:15:59;;;;;;;5.53;4.60;;;;;;;9.12;78.08;95967.41;5080294;28;20036;-71
2022/11/25 11:18:28;;;;;;;4.88;4.35;;;;;;;9.32;77.87;95962.28;5067954;28;20043;-64
2022/11/25 11:20:56;;;;;;;3.70;3.30;;;;;;;9.56;75.19;95974.34;5063843;28;20050;-63
2022/11/25 11:23:22;;;;;;;3.42;3.05;;;;;;;9.58;75.79;95975.91;5064275;28;20020;-59
2022/11/25 11:25:55;;;;;;;5.43;3.17;;;;;;;9.60;74.72;95975.75;5081287;28;20656;-59
2022/11/25 11:28:26;;;;;;;4.10;2.92;;;;;;;9.60;75.93;95975.75;5077363;28;20024;-60
2022/11/25 11:31:06;;;;;;;3.67;3.38;;;;;;;9.64;74.73;95982.44;5079138;28;20085;-59
2022/11/25 11:33:58;;;;;;;4.20;2.97;;;;;;;9.62;73.19;95973.00;5072803;28;20102;-59
2022/11/25 11:36:50;;;;;;;4.18;3.13;;;;;;;9.34;73.24;95985.81;5062957;28;20622;-59